sensor_id;sensor_type;location;lat;lon;timestamp;temperature;humidity
1063;DHT22;520;50.932;6.962;2023-09-08T00:00:53;23.50;87.10
1063;DHT22;520;50.932;6.962;2023-09-08T00:04:22;23.70;87.30
1063;DHT22;520;50.932;6.962;2023-09-08T00:14:28;23.40;88.80
1063;DHT22;520;50.932;6.962;2023-09-08T00:18:02;23.20;88.90
1063;DHT22;520;50.932;6.962;2023-09-08T00:24:49;23.00;89.30
1063;DHT22;520;50.932;6.962;2023-09-08T00:47:43;22.50;91.20
1063;DHT22;520;50.932;6.962;2023-09-08T01:02:05;22.70;91.50
1063;DHT22;520;50.932;6.962;2023-09-08T01:09:51;22.70;91.50
1063;DHT22;520;50.932;6.962;2023-09-08T01:13:50;22.60;91.60
1063;DHT22;520;50.932;6.962;2023-09-08T01:17:11;22.80;91.70
1063;DHT22;520;50.932;6.962;2023-09-08T01:31:47;22.80;92.70
1063;DHT22;520;50.932;6.962;2023-09-08T01:35:19;22.60;93.10
1063;DHT22;520;50.932;6.962;2023-09-08T01:38:57;22.60;93.00
1063;DHT22;520;50.932;6.962;2023-09-08T01:42:58;22.20;93.40
1063;DHT22;520;50.932;6.962;2023-09-08T01:46:48;22.20;93.20
1063;DHT22;520;50.932;6.962;2023-09-08T01:53:43;22.10;93.60
1063;DHT22;520;50.932;6.962;2023-09-08T02:04:37;22.10;93.70
1063;DHT22;520;50.932;6.962;2023-09-08T02:18:04;21.60;95.30
1063;DHT22;520;50.932;6.962;2023-09-08T02:21:13;21.70;95.10
1063;DHT22;520;50.932;6.962;2023-09-08T02:24:25;21.70;95.10
1063;DHT22;520;50.932;6.962;2023-09-08T02:30:41;21.60;95.20
1063;DHT22;520;50.932;6.962;2023-09-08T02:33:59;21.50;95.60
1063;DHT22;520;50.932;6.962;2023-09-08T02:37:12;21.40;96.00
1063;DHT22;520;50.932;6.962;2023-09-08T02:40:11;21.40;95.50
1063;DHT22;520;50.932;6.962;2023-09-08T02:46:48;21.30;95.60
1063;DHT22;520;50.932;6.962;2023-09-08T02:52:01;21.30;95.50
1063;DHT22;520;50.932;6.962;2023-09-08T02:54:33;21.30;95.60
1063;DHT22;520;50.932;6.962;2023-09-08T02:57:02;21.20;95.90
1063;DHT22;520;50.932;6.962;2023-09-08T02:59:35;21.20;96.10
1063;DHT22;520;50.932;6.962;2023-09-08T03:02:10;21.20;96.60
1063;DHT22;520;50.932;6.962;2023-09-08T03:04:40;21.10;96.40
1063;DHT22;520;50.932;6.962;2023-09-08T03:07:10;21.20;96.20
1063;DHT22;520;50.932;6.962;2023-09-08T03:09:43;21.10;96.30
1063;DHT22;520;50.932;6.962;2023-09-08T03:12:17;20.90;96.60
1063;DHT22;520;50.932;6.962;2023-09-08T03:14:52;20.70;97.00
1063;DHT22;520;50.932;6.962;2023-09-08T03:17:25;20.60;97.50
1063;DHT22;520;50.932;6.962;2023-09-08T03:20:14;20.50;97.40
1063;DHT22;520;50.932;6.962;2023-09-08T03:22:52;20.50;97.60
1063;DHT22;520;50.932;6.962;2023-09-08T03:25:22;20.60;97.60
1063;DHT22;520;50.932;6.962;2023-09-08T03:27:56;20.70;97.40
1063;DHT22;520;50.932;6.962;2023-09-08T03:30:26;20.80;97.40
1063;DHT22;520;50.932;6.962;2023-09-08T03:33:05;20.70;97.40
1063;DHT22;520;50.932;6.962;2023-09-08T03:35:34;20.80;97.30
1063;DHT22;520;50.932;6.962;2023-09-08T03:38:23;20.70;97.30
1063;DHT22;520;50.932;6.962;2023-09-08T03:41:10;20.70;97.30
1063;DHT22;520;50.932;6.962;2023-09-08T03:43:40;20.70;97.10
1063;DHT22;520;50.932;6.962;2023-09-08T03:46:21;20.60;97.10
1063;DHT22;520;50.932;6.962;2023-09-08T03:49:01;20.40;97.40
1063;DHT22;520;50.932;6.962;2023-09-08T03:51:40;20.40;97.70
1063;DHT22;520;50.932;6.962;2023-09-08T03:54:24;20.40;97.60
1063;DHT22;520;50.932;6.962;2023-09-08T03:57:01;20.60;98.00
1063;DHT22;520;50.932;6.962;2023-09-08T03:59:41;20.30;98.10
1063;DHT22;520;50.932;6.962;2023-09-08T04:02:21;20.30;98.00
1063;DHT22;520;50.932;6.962;2023-09-08T04:04:53;20.30;97.90
1063;DHT22;520;50.932;6.962;2023-09-08T04:07:43;20.30;97.80
1063;DHT22;520;50.932;6.962;2023-09-08T04:10:16;20.30;97.80
1063;DHT22;520;50.932;6.962;2023-09-08T04:12:51;20.20;97.80
1063;DHT22;520;50.932;6.962;2023-09-08T04:15:40;20.10;98.20
1063;DHT22;520;50.932;6.962;2023-09-08T04:18:15;20.00;98.40
1063;DHT22;520;50.932;6.962;2023-09-08T04:21:12;20.00;98.60
1063;DHT22;520;50.932;6.962;2023-09-08T04:23:47;20.00;98.70
1063;DHT22;520;50.932;6.962;2023-09-08T04:26:18;19.80;98.50
1063;DHT22;520;50.932;6.962;2023-09-08T04:28:50;19.80;98.70
1063;DHT22;520;50.932;6.962;2023-09-08T04:31:20;20.00;98.70
1063;DHT22;520;50.932;6.962;2023-09-08T04:34:01;19.90;98.70
1063;DHT22;520;50.932;6.962;2023-09-08T04:36:41;20.10;98.60
1063;DHT22;520;50.932;6.962;2023-09-08T04:39:42;20.50;98.30
1063;DHT22;520;50.932;6.962;2023-09-08T04:42:23;20.10;98.10
1063;DHT22;520;50.932;6.962;2023-09-08T04:44:55;20.00;98.10
1063;DHT22;520;50.932;6.962;2023-09-08T04:47:30;20.00;98.40
1063;DHT22;520;50.932;6.962;2023-09-08T04:50:06;19.90;98.50
1063;DHT22;520;50.932;6.962;2023-09-08T04:52:44;20.00;98.60
1063;DHT22;520;50.932;6.962;2023-09-08T04:55:25;20.10;98.10
1063;DHT22;520;50.932;6.962;2023-09-08T04:57:56;20.10;98.00
1063;DHT22;520;50.932;6.962;2023-09-08T05:00:35;20.20;97.90
1063;DHT22;520;50.932;6.962;2023-09-08T05:03:11;20.10;97.80
1063;DHT22;520;50.932;6.962;2023-09-08T05:05:53;20.00;97.90
1063;DHT22;520;50.932;6.962;2023-09-08T05:08:45;20.10;98.00
1063;DHT22;520;50.932;6.962;2023-09-08T05:23:31;20.00;98.20
1063;DHT22;520;50.932;6.962;2023-09-08T05:26:41;20.30;98.00
1063;DHT22;520;50.932;6.962;2023-09-08T05:29:12;20.20;97.90
1063;DHT22;520;50.932;6.962;2023-09-08T05:31:46;20.20;97.90
1063;DHT22;520;50.932;6.962;2023-09-08T05:34:16;20.20;97.70
1063;DHT22;520;50.932;6.962;2023-09-08T05:36:47;20.20;97.60
1063;DHT22;520;50.932;6.962;2023-09-08T05:50:07;20.30;97.60
1063;DHT22;520;50.932;6.962;2023-09-08T06:05:04;20.30;97.00
1063;DHT22;520;50.932;6.962;2023-09-08T06:07:48;20.50;96.20
1063;DHT22;520;50.932;6.962;2023-09-08T06:10:39;21.00;96.80
1063;DHT22;520;50.932;6.962;2023-09-08T06:13:23;24.10;92.10
1063;DHT22;520;50.932;6.962;2023-09-08T06:16:04;26.50;81.10
1063;DHT22;520;50.932;6.962;2023-09-08T06:18:52;27.80;73.10
1063;DHT22;520;50.932;6.962;2023-09-08T06:21:21;28.90;67.90
1063;DHT22;520;50.932;6.962;2023-09-08T06:27:10;29.90;60.20
1063;DHT22;520;50.932;6.962;2023-09-08T06:29:48;30.00;59.40
1063;DHT22;520;50.932;6.962;2023-09-08T06:33:11;30.90;57.90
1063;DHT22;520;50.932;6.962;2023-09-08T06:36:02;31.40;57.10
1063;DHT22;520;50.932;6.962;2023-09-08T06:39:17;31.40;55.20
1063;DHT22;520;50.932;6.962;2023-09-08T06:42:43;31.90;54.10
1063;DHT22;520;50.932;6.962;2023-09-08T06:46:25;31.80;53.30
1063;DHT22;520;50.932;6.962;2023-09-08T06:49:08;32.30;52.70
1063;DHT22;520;50.932;6.962;2023-09-08T06:51:42;32.50;51.40
1063;DHT22;520;50.932;6.962;2023-09-08T06:55:31;32.50;51.70
1063;DHT22;520;50.932;6.962;2023-09-08T06:58:14;32.10;50.60
1063;DHT22;520;50.932;6.962;2023-09-08T07:00:58;29.00;54.80
1063;DHT22;520;50.932;6.962;2023-09-08T07:03:39;26.40;61.50
1063;DHT22;520;50.932;6.962;2023-09-08T07:06:42;26.50;65.70
1063;DHT22;520;50.932;6.962;2023-09-08T07:10:05;28.70;60.00
1063;DHT22;520;50.932;6.962;2023-09-08T07:13:04;30.80;55.70
1063;DHT22;520;50.932;6.962;2023-09-08T07:16:04;32.00;52.60
1063;DHT22;520;50.932;6.962;2023-09-08T07:18:52;32.60;50.90
1063;DHT22;520;50.932;6.962;2023-09-08T07:21:20;32.10;51.80
1063;DHT22;520;50.932;6.962;2023-09-08T07:24:45;33.10;50.10
1063;DHT22;520;50.932;6.962;2023-09-08T07:27:42;34.00;48.80
1063;DHT22;520;50.932;6.962;2023-09-08T07:31:03;35.00;46.60
1063;DHT22;520;50.932;6.962;2023-09-08T07:37:17;35.70;44.40
1063;DHT22;520;50.932;6.962;2023-09-08T07:40:15;35.50;44.70
1063;DHT22;520;50.932;6.962;2023-09-08T07:43:41;35.50;44.70
1063;DHT22;520;50.932;6.962;2023-09-08T07:46:47;35.80;43.80
1063;DHT22;520;50.932;6.962;2023-09-08T07:49:38;35.60;43.80
1063;DHT22;520;50.932;6.962;2023-09-08T07:52:18;35.30;44.10
1063;DHT22;520;50.932;6.962;2023-09-08T07:55:17;34.70;44.60
1063;DHT22;520;50.932;6.962;2023-09-08T07:58:14;34.70;45.20
1063;DHT22;520;50.932;6.962;2023-09-08T08:01:31;35.20;44.20
1063;DHT22;520;50.932;6.962;2023-09-08T08:04:43;36.30;42.60
1063;DHT22;520;50.932;6.962;2023-09-08T08:14:51;35.80;42.70
1063;DHT22;520;50.932;6.962;2023-09-08T08:21:03;35.70;43.50
1063;DHT22;520;50.932;6.962;2023-09-08T08:23:44;35.80;42.80
1063;DHT22;520;50.932;6.962;2023-09-08T08:26:48;36.10;42.10
1063;DHT22;520;50.932;6.962;2023-09-08T08:29:47;35.40;42.90
1063;DHT22;520;50.932;6.962;2023-09-08T08:32:44;35.20;43.10
1063;DHT22;520;50.932;6.962;2023-09-08T08:35:58;34.80;43.10
1063;DHT22;520;50.932;6.962;2023-09-08T08:38:49;35.50;43.10
1063;DHT22;520;50.932;6.962;2023-09-08T08:41:34;35.80;42.00
1063;DHT22;520;50.932;6.962;2023-09-08T08:44:29;35.20;42.70
1063;DHT22;520;50.932;6.962;2023-09-08T08:48:00;35.00;43.10
1063;DHT22;520;50.932;6.962;2023-09-08T08:51:32;35.20;43.10
1063;DHT22;520;50.932;6.962;2023-09-08T08:54:32;33.30;44.80
1063;DHT22;520;50.932;6.962;2023-09-08T08:58:10;30.50;49.90
1063;DHT22;520;50.932;6.962;2023-09-08T09:01:36;28.90;53.70
1063;DHT22;520;50.932;6.962;2023-09-08T09:08:06;29.50;54.50
1063;DHT22;520;50.932;6.962;2023-09-08T09:30:25;35.20;44.10
1063;DHT22;520;50.932;6.962;2023-09-08T10:27:29;35.40;42.80
1063;DHT22;520;50.932;6.962;2023-09-08T11:02:56;36.10;41.90
1063;DHT22;520;50.932;6.962;2023-09-08T11:25:47;36.40;41.30
1063;DHT22;520;50.932;6.962;2023-09-08T12:03:57;36.50;40.40
1063;DHT22;520;50.932;6.962;2023-09-08T12:07:29;36.40;40.70
1063;DHT22;520;50.932;6.962;2023-09-08T12:14:52;36.40;41.30
1063;DHT22;520;50.932;6.962;2023-09-08T12:17:49;36.80;40.30
1063;DHT22;520;50.932;6.962;2023-09-08T12:25:07;36.60;40.30
1063;DHT22;520;50.932;6.962;2023-09-08T12:38:59;35.80;41.30
1063;DHT22;520;50.932;6.962;2023-09-08T12:56:32;36.40;40.40
1063;DHT22;520;50.932;6.962;2023-09-08T12:59:30;36.90;40.10
1063;DHT22;520;50.932;6.962;2023-09-08T13:09:44;36.90;39.90
1063;DHT22;520;50.932;6.962;2023-09-08T13:13:01;36.60;40.60
1063;DHT22;520;50.932;6.962;2023-09-08T13:16:13;36.90;40.10
1063;DHT22;520;50.932;6.962;2023-09-08T14:17:53;35.60;41.90
1063;DHT22;520;50.932;6.962;2023-09-08T14:25:08;35.70;41.60
1063;DHT22;520;50.932;6.962;2023-09-08T14:28:33;35.30;41.60
1063;DHT22;520;50.932;6.962;2023-09-08T14:31:40;35.20;42.00
1063;DHT22;520;50.932;6.962;2023-09-08T14:34:30;35.40;41.80
1063;DHT22;520;50.932;6.962;2023-09-08T14:37:20;35.10;42.40
1063;DHT22;520;50.932;6.962;2023-09-08T14:44:04;34.80;42.90
1063;DHT22;520;50.932;6.962;2023-09-08T14:46:30;34.90;42.70
1063;DHT22;520;50.932;6.962;2023-09-08T14:49:30;34.60;43.20
1063;DHT22;520;50.932;6.962;2023-09-08T15:04:28;35.00;43.10
1063;DHT22;520;50.932;6.962;2023-09-08T15:39:33;33.90;44.30
1063;DHT22;520;50.932;6.962;2023-09-08T15:46:35;33.90;44.70
1063;DHT22;520;50.932;6.962;2023-09-08T15:56:39;33.60;44.90
1063;DHT22;520;50.932;6.962;2023-09-08T16:03:48;33.60;45.30
1063;DHT22;520;50.932;6.962;2023-09-08T16:07:06;33.50;45.40
1063;DHT22;520;50.932;6.962;2023-09-08T16:14:38;33.20;45.40
1063;DHT22;520;50.932;6.962;2023-09-08T16:30:56;33.20;46.60
1063;DHT22;520;50.932;6.962;2023-09-08T16:34:53;32.90;47.20
1063;DHT22;520;50.932;6.962;2023-09-08T16:38:56;32.70;47.60
1063;DHT22;520;50.932;6.962;2023-09-08T16:42:13;32.90;48.00
1063;DHT22;520;50.932;6.962;2023-09-08T16:45:54;32.70;47.90
1063;DHT22;520;50.932;6.962;2023-09-08T16:49:18;32.70;48.20
1063;DHT22;520;50.932;6.962;2023-09-08T16:59:26;32.30;50.80
1063;DHT22;520;50.932;6.962;2023-09-08T17:02:55;32.00;51.70
1063;DHT22;520;50.932;6.962;2023-09-08T17:05:53;31.90;52.40
1063;DHT22;520;50.932;6.962;2023-09-08T17:09:17;32.10;52.40
1063;DHT22;520;50.932;6.962;2023-09-08T17:12:34;31.90;52.50
1063;DHT22;520;50.932;6.962;2023-09-08T17:23:21;31.80;53.70
1063;DHT22;520;50.932;6.962;2023-09-08T17:26:47;31.60;54.10
1063;DHT22;520;50.932;6.962;2023-09-08T17:37:26;31.50;55.00
1063;DHT22;520;50.932;6.962;2023-09-08T17:43:44;31.50;55.10
1063;DHT22;520;50.932;6.962;2023-09-08T17:47:19;31.40;55.40
1063;DHT22;520;50.932;6.962;2023-09-08T17:51:10;31.30;55.40
1063;DHT22;520;50.932;6.962;2023-09-08T18:02:41;31.00;56.10
1063;DHT22;520;50.932;6.962;2023-09-08T18:06:16;30.90;56.60
1063;DHT22;520;50.932;6.962;2023-09-08T18:09:45;30.90;56.70
1063;DHT22;520;50.932;6.962;2023-09-08T18:13:11;30.70;56.70
1063;DHT22;520;50.932;6.962;2023-09-08T18:27:55;30.60;58.40
1063;DHT22;520;50.932;6.962;2023-09-08T18:38:15;30.50;59.10
1063;DHT22;520;50.932;6.962;2023-09-08T18:41:31;30.40;59.40
1063;DHT22;520;50.932;6.962;2023-09-08T18:48:18;30.20;60.10
1063;DHT22;520;50.932;6.962;2023-09-08T18:51:11;30.20;60.40
1063;DHT22;520;50.932;6.962;2023-09-08T18:54:32;29.90;60.60
1063;DHT22;520;50.932;6.962;2023-09-08T19:09:51;29.90;62.30
1063;DHT22;520;50.932;6.962;2023-09-08T19:24:09;29.50;62.50
1063;DHT22;520;50.932;6.962;2023-09-08T19:32:03;29.20;64.30
1063;DHT22;520;50.932;6.962;2023-09-08T19:35:00;29.20;64.60
1063;DHT22;520;50.932;6.962;2023-09-08T19:37:50;29.20;64.90
1063;DHT22;520;50.932;6.962;2023-09-08T19:40:40;29.20;64.60
1063;DHT22;520;50.932;6.962;2023-09-08T19:43:11;29.10;64.80
1063;DHT22;520;50.932;6.962;2023-09-08T19:45:42;29.10;64.80
1063;DHT22;520;50.932;6.962;2023-09-08T19:48:16;29.10;65.10
1063;DHT22;520;50.932;6.962;2023-09-08T19:51:12;29.10;65.50
1063;DHT22;520;50.932;6.962;2023-09-08T19:54:00;29.10;65.70
1063;DHT22;520;50.932;6.962;2023-09-08T19:56:53;29.10;65.20
1063;DHT22;520;50.932;6.962;2023-09-08T19:59:31;29.00;65.40
1063;DHT22;520;50.932;6.962;2023-09-08T20:05:10;28.80;66.30
1063;DHT22;520;50.932;6.962;2023-09-08T20:07:40;28.80;66.70
1063;DHT22;520;50.932;6.962;2023-09-08T20:10:23;28.60;67.20
1063;DHT22;520;50.932;6.962;2023-09-08T20:13:02;28.80;67.70
1063;DHT22;520;50.932;6.962;2023-09-08T20:15:41;28.70;67.80
1063;DHT22;520;50.932;6.962;2023-09-08T20:18:41;28.70;68.00
1063;DHT22;520;50.932;6.962;2023-09-08T20:21:22;28.60;67.40
1063;DHT22;520;50.932;6.962;2023-09-08T20:24:01;28.60;68.10
1063;DHT22;520;50.932;6.962;2023-09-08T20:26:41;28.40;69.20
1063;DHT22;520;50.932;6.962;2023-09-08T20:29:32;28.20;70.10
1063;DHT22;520;50.932;6.962;2023-09-08T20:32:25;28.10;70.60
1063;DHT22;520;50.932;6.962;2023-09-08T20:35:22;28.00;71.10
1063;DHT22;520;50.932;6.962;2023-09-08T20:42:08;27.70;73.80
1063;DHT22;520;50.932;6.962;2023-09-08T20:44:54;27.90;75.40
1063;DHT22;520;50.932;6.962;2023-09-08T20:51:29;27.70;75.90
1063;DHT22;520;50.932;6.962;2023-09-08T20:54:41;27.80;75.50
1063;DHT22;520;50.932;6.962;2023-09-08T20:57:46;27.60;75.80
1063;DHT22;520;50.932;6.962;2023-09-08T21:01:12;27.80;75.80
1063;DHT22;520;50.932;6.962;2023-09-08T21:12:06;27.30;75.60
1063;DHT22;520;50.932;6.962;2023-09-08T21:18:36;27.10;78.00
1063;DHT22;520;50.932;6.962;2023-09-08T21:22:29;26.90;79.00
1063;DHT22;520;50.932;6.962;2023-09-08T21:26:05;26.70;80.50
1063;DHT22;520;50.932;6.962;2023-09-08T21:29:28;26.60;82.10
1063;DHT22;520;50.932;6.962;2023-09-08T21:40:10;26.30;85.40
1063;DHT22;520;50.932;6.962;2023-09-08T21:43:52;26.20;86.30
1063;DHT22;520;50.932;6.962;2023-09-08T21:47:21;26.40;84.10
1063;DHT22;520;50.932;6.962;2023-09-08T21:54:54;26.40;85.00
1063;DHT22;520;50.932;6.962;2023-09-08T22:05:14;26.40;82.90
1063;DHT22;520;50.932;6.962;2023-09-08T22:08:48;26.20;83.70
1063;DHT22;520;50.932;6.962;2023-09-08T22:11:27;26.10;84.40
1063;DHT22;520;50.932;6.962;2023-09-08T22:14:29;26.00;84.80
1063;DHT22;520;50.932;6.962;2023-09-08T22:18:41;25.90;83.80
1063;DHT22;520;50.932;6.962;2023-09-08T22:22:35;25.80;85.50
1063;DHT22;520;50.932;6.962;2023-09-08T22:56:54;25.50;87.50
1063;DHT22;520;50.932;6.962;2023-09-08T23:07:38;25.30;87.30
1063;DHT22;520;50.932;6.962;2023-09-08T23:13:33;25.00;89.00
1063;DHT22;520;50.932;6.962;2023-09-08T23:19:56;24.90;89.30
1063;DHT22;520;50.932;6.962;2023-09-08T23:22:56;25.00;89.00
1063;DHT22;520;50.932;6.962;2023-09-08T23:25:39;25.10;87.20
1063;DHT22;520;50.932;6.962;2023-09-08T23:28:49;25.00;87.70
1063;DHT22;520;50.932;6.962;2023-09-08T23:31:56;25.00;87.60
1063;DHT22;520;50.932;6.962;2023-09-08T23:34:59;24.90;86.90
1063;DHT22;520;50.932;6.962;2023-09-08T23:48:13;24.90;87.60
1063;DHT22;520;50.932;6.962;2023-09-08T23:53:56;24.60;88.20
1063;DHT22;520;50.932;6.962;2023-09-08T23:56:40;24.60;88.10
1063;DHT22;520;50.932;6.962;2023-09-08T23:59:37;24.70;89.00
